createdAt,value
2022-08-31T00:01:19.262Z,1.27
2022-08-31T00:06:17.395Z,1.20
2022-08-31T00:11:16.878Z,1.37
2022-08-31T00:16:16.379Z,1.30
2022-08-31T00:21:14.397Z,1.43
2022-08-31T00:26:12.422Z,1.43
2022-08-31T00:31:10.731Z,1.27
2022-08-31T00:36:13.050Z,1.40
2022-08-31T00:41:12.101Z,1.40
2022-08-31T00:46:11.956Z,1.53
2022-08-31T00:51:13.093Z,1.47
2022-08-31T00:56:16.903Z,1.53
2022-08-31T01:01:15.381Z,1.50
2022-08-31T01:06:18.132Z,1.30
2022-08-31T01:11:18.670Z,1.20
2022-08-31T01:16:25.308Z,1.33
2022-08-31T01:21:29.181Z,1.27
2022-08-31T01:26:30.331Z,1.17
2022-08-31T01:31:33.435Z,1.20
2022-08-31T01:36:35.599Z,1.20
2022-08-31T01:41:36.023Z,1.30
2022-08-31T01:46:34.161Z,1.30
2022-08-31T01:51:32.189Z,1.70
2022-08-31T01:56:32.628Z,1.50
2022-08-31T02:01:36.637Z,1.00
2022-08-31T02:06:35.982Z,1.10
2022-08-31T02:11:34.265Z,1.50
2022-08-31T02:16:32.586Z,1.60
2022-08-31T02:21:32.904Z,1.60
2022-08-31T02:26:35.152Z,1.20
2022-08-31T02:31:35.247Z,1.20
2022-08-31T02:36:35.999Z,1.10
2022-08-31T02:41:36.535Z,1.50
2022-08-31T02:46:35.285Z,1.27
2022-08-31T02:51:53.188Z,1.50
2022-08-31T02:56:52.917Z,1.37
2022-08-31T03:01:52.904Z,1.20
2022-08-31T03:06:52.604Z,1.37
2022-08-31T03:11:50.665Z,1.33
2022-08-31T03:16:51.925Z,1.30
2022-08-31T03:21:55.797Z,1.23
2022-08-31T03:26:54.843Z,1.67
2022-08-31T03:31:53.148Z,1.30
2022-08-31T03:36:52.978Z,1.30
2022-08-31T03:41:51.093Z,1.00
2022-08-31T03:46:51.427Z,1.27
2022-08-31T03:51:50.277Z,1.23
2022-08-31T03:56:52.870Z,1.50
2022-08-31T04:01:51.691Z,1.47
2022-08-31T04:07:08.402Z,1.67
2022-08-31T04:12:46.111Z,1.10
2022-08-31T04:18:02.186Z,1.60
2022-08-31T04:23:20.507Z,1.80
2022-08-31T04:28:24.309Z,1.57
2022-08-31T04:33:22.384Z,2.03
2022-08-31T04:38:20.441Z,2.20
2022-08-31T04:43:18.759Z,1.90
2022-08-31T04:48:18.382Z,1.50
2022-08-31T04:53:16.372Z,1.87
2022-08-31T04:58:15.225Z,1.40
2022-08-31T05:03:13.724Z,2.23
2022-08-31T05:08:14.373Z,1.70
2022-08-31T05:13:12.728Z,1.83
2022-08-31T05:18:11.384Z,1.87
2022-08-31T05:23:16.082Z,1.90
2022-08-31T05:28:16.705Z,1.60
2022-08-31T05:33:14.895Z,1.30
2022-08-31T05:38:13.183Z,1.43
2022-08-31T05:43:12.671Z,1.70
2022-08-31T05:48:10.846Z,1.90
2022-08-31T05:53:09.872Z,1.60
2022-08-31T05:58:08.120Z,2.00
2022-08-31T06:03:07.615Z,1.67
2022-08-31T06:08:05.739Z,1.90
2022-08-31T06:13:05.369Z,1.60
2022-08-31T06:18:05.434Z,1.47
2022-08-31T06:23:05.723Z,1.53
2022-08-31T06:28:15.341Z,1.40
2022-08-31T06:33:14.750Z,1.43
2022-08-31T06:38:35.467Z,1.70
2022-08-31T06:43:55.707Z,1.70
2022-08-31T06:49:10.291Z,1.47
2022-08-31T06:54:28.514Z,1.63
2022-08-31T06:59:45.879Z,1.20
2022-08-31T07:04:58.126Z,1.70
2022-08-31T07:09:58.120Z,1.30
2022-08-31T07:14:56.275Z,1.17
2022-08-31T07:19:55.994Z,1.00
2022-08-31T07:24:54.103Z,1.10
2022-08-31T07:29:54.234Z,1.23
2022-08-31T07:34:59.773Z,1.40
2022-08-31T07:40:19.473Z,1.20
2022-08-31T07:45:23.183Z,1.00
2022-08-31T07:50:26.763Z,1.03
2022-08-31T07:55:47.924Z,1.60
2022-08-31T08:01:09.965Z,0.87
2022-08-31T08:06:12.853Z,0.80
2022-08-31T08:11:32.267Z,1.00
2022-08-31T08:16:52.263Z,1.03
2022-08-31T08:22:05.919Z,0.93
2022-08-31T08:27:21.258Z,0.90
2022-08-31T08:32:32.549Z,1.33
2022-08-31T08:37:56.618Z,0.73
2022-08-31T08:42:49.824Z,0.77
2022-08-31T08:47:50.756Z,0.93
2022-08-31T08:52:49.004Z,1.00
2022-08-31T08:57:49.550Z,0.90
2022-08-31T09:02:58.249Z,0.93
2022-08-31T09:08:29.110Z,0.70
2022-08-31T09:13:43.109Z,1.13
2022-08-31T09:18:48.798Z,1.17
2022-08-31T09:23:49.247Z,0.80
2022-08-31T09:28:52.839Z,1.10
2022-08-31T09:33:52.248Z,0.87
2022-08-31T09:38:51.800Z,0.90
2022-08-31T09:43:50.064Z,0.90
2022-08-31T09:48:52.316Z,0.90
2022-08-31T09:54:10.269Z,1.40
2022-08-31T09:59:11.666Z,1.03
2022-08-31T10:04:18.809Z,0.93
2022-08-31T10:09:28.537Z,1.00
2022-08-31T10:14:33.274Z,0.80
2022-08-31T10:19:48.394Z,0.80
2022-08-31T10:24:55.087Z,1.00
2022-08-31T10:29:57.084Z,0.90
2022-08-31T10:35:06.931Z,0.90
2022-08-31T10:40:11.255Z,0.83
2022-08-31T10:45:18.575Z,1.07
2022-08-31T10:50:25.312Z,1.30
2022-08-31T10:55:33.088Z,0.80
2022-08-31T11:00:46.602Z,0.80
2022-08-31T11:05:50.897Z,0.80
2022-08-31T11:10:53.325Z,1.10
2022-08-31T11:16:03.616Z,0.80
2022-08-31T11:21:21.139Z,0.93
2022-08-31T11:26:45.123Z,0.90
2022-08-31T11:31:43.726Z,1.00
2022-08-31T11:36:51.446Z,1.10
2022-08-31T11:41:51.897Z,0.90
2022-08-31T11:47:06.785Z,0.80
2022-08-31T11:52:12.577Z,0.70
2022-08-31T11:57:15.905Z,0.83
2022-08-31T12:02:44.726Z,1.07
2022-08-31T12:07:46.276Z,0.90
2022-08-31T12:13:07.986Z,1.00
2022-08-31T12:18:18.899Z,0.80
2022-08-31T12:23:36.653Z,0.80
2022-08-31T12:28:54.022Z,1.10
2022-08-31T12:34:00.611Z,0.93
2022-08-31T12:39:10.716Z,0.90
2022-08-31T12:44:14.033Z,1.00
2022-08-31T12:49:37.618Z,1.00
2022-08-31T12:55:12.655Z,0.90
2022-08-31T13:00:17.793Z,0.90
2022-08-31T13:05:21.258Z,0.80
2022-08-31T13:10:28.467Z,0.80
2022-08-31T13:15:30.741Z,0.80
2022-08-31T13:20:44.154Z,0.90
2022-08-31T13:25:42.801Z,1.00
2022-08-31T13:30:55.345Z,0.70
2022-08-31T13:36:03.795Z,0.80
2022-08-31T13:41:01.968Z,0.83
2022-08-31T13:46:02.067Z,1.23
2022-08-31T13:51:03.257Z,1.00
2022-08-31T13:56:01.359Z,0.80
2022-08-31T14:01:24.612Z,1.03
2022-08-31T14:06:24.983Z,0.80
2022-08-31T14:11:28.401Z,0.90
2022-08-31T14:16:35.025Z,0.90
2022-08-31T14:21:35.072Z,0.90
2022-08-31T14:26:35.119Z,0.90
2022-08-31T14:31:37.701Z,1.07
2022-08-31T14:36:39.006Z,0.80
2022-08-31T14:41:37.393Z,1.00
2022-08-31T14:46:38.763Z,1.00
2022-08-31T14:51:39.154Z,0.90
2022-08-31T14:56:45.306Z,0.90
2022-08-31T15:01:46.500Z,1.03
2022-08-31T15:06:49.046Z,1.00
2022-08-31T15:11:47.497Z,1.00
2022-08-31T15:16:49.509Z,1.10
2022-08-31T15:21:52.829Z,0.87
2022-08-31T15:26:59.604Z,0.90
2022-08-31T15:31:59.929Z,1.23
2022-08-31T15:37:02.191Z,1.10
2022-08-31T15:42:01.235Z,0.80
2022-08-31T15:47:18.163Z,0.97
2022-08-31T15:52:16.208Z,1.00
2022-08-31T15:57:16.052Z,1.27
2022-08-31T16:02:20.715Z,0.80
2022-08-31T16:07:23.005Z,1.10
2022-08-31T16:12:22.829Z,1.10
2022-08-31T16:17:22.525Z,1.03
2022-08-31T16:22:22.447Z,1.07
2022-08-31T16:27:26.227Z,1.27
2022-08-31T16:32:27.656Z,0.90
2022-08-31T16:37:25.681Z,0.90
2022-08-31T16:42:23.735Z,0.80
2022-08-31T16:47:22.674Z,1.20
2022-08-31T16:52:26.608Z,1.33
2022-08-31T16:57:27.146Z,1.27
2022-08-31T17:02:26.256Z,0.90
2022-08-31T17:07:26.113Z,1.00
2022-08-31T17:12:28.400Z,0.90
2022-08-31T17:17:27.717Z,1.03
2022-08-31T17:22:32.996Z,1.00
2022-08-31T17:27:33.029Z,0.97
2022-08-31T17:32:31.042Z,1.13
2022-08-31T17:37:36.112Z,1.10
2022-08-31T17:42:34.804Z,0.90
2022-08-31T17:47:33.856Z,1.27
2022-08-31T17:52:33.376Z,1.10
2022-08-31T17:57:31.495Z,1.10
2022-08-31T18:02:34.425Z,0.70
2022-08-31T18:07:33.987Z,1.30
2022-08-31T18:12:32.258Z,1.37
2022-08-31T18:17:30.352Z,1.33
2022-08-31T18:22:29.058Z,1.10
2022-08-31T18:27:29.209Z,0.87
2022-08-31T18:32:34.128Z,1.23
2022-08-31T18:37:34.812Z,1.50
2022-08-31T18:42:51.723Z,1.37
2022-08-31T18:53:15.563Z,1.17
2022-08-31T18:58:26.252Z,1.33
2022-08-31T19:03:25.552Z,1.53
2022-08-31T19:08:23.934Z,1.17
2022-08-31T19:13:22.038Z,1.20
2022-08-31T19:18:21.464Z,1.10
2022-08-31T19:23:20.396Z,1.67
2022-08-31T19:28:18.707Z,1.30
2022-08-31T19:33:17.683Z,1.40
2022-08-31T19:38:17.786Z,1.50
2022-08-31T19:48:46.015Z,1.10
2022-08-31T19:53:46.127Z,1.43
2022-08-31T19:58:47.002Z,1.13
2022-08-31T20:03:47.792Z,0.93
2022-08-31T20:08:48.982Z,1.20
2022-08-31T20:13:47.128Z,1.27
2022-08-31T20:18:48.606Z,1.23
2022-08-31T20:23:49.270Z,1.10
2022-08-31T20:28:47.212Z,1.50
2022-08-31T20:33:46.834Z,1.20
2022-08-31T20:38:44.885Z,1.37
2022-08-31T20:43:45.105Z,1.37
2022-08-31T20:49:00.699Z,1.17
2022-08-31T20:53:58.657Z,1.20
2022-08-31T20:58:58.063Z,1.10
2022-08-31T21:03:57.103Z,1.00
2022-08-31T21:08:56.722Z,1.03
2022-08-31T21:13:55.527Z,1.07
2022-08-31T21:18:54.965Z,1.50
2022-08-31T21:23:53.185Z,1.20
2022-08-31T21:28:52.365Z,1.00
2022-08-31T21:33:51.440Z,1.10
2022-08-31T21:38:52.570Z,1.43
2022-08-31T21:43:50.656Z,1.00
2022-08-31T21:48:50.381Z,1.00
2022-08-31T21:53:52.088Z,1.20
2022-08-31T21:58:51.012Z,1.30
2022-08-31T22:03:50.324Z,1.00
2022-08-31T22:08:50.562Z,0.97
2022-08-31T22:13:53.338Z,1.37
2022-08-31T22:19:02.405Z,1.20
2022-08-31T22:24:04.948Z,0.97
2022-08-31T22:29:06.171Z,1.10
2022-08-31T22:34:05.271Z,1.10
2022-08-31T22:39:05.502Z,0.80
2022-08-31T22:44:05.243Z,0.90
2022-08-31T22:49:03.638Z,0.90
2022-08-31T22:54:01.759Z,0.97
2022-08-31T22:59:03.634Z,1.10
2022-08-31T23:04:06.679Z,0.90
2022-08-31T23:09:08.418Z,0.87
2022-08-31T23:14:08.941Z,0.90
2022-08-31T23:19:12.353Z,1.00
2022-08-31T23:24:11.035Z,0.87
2022-08-31T23:29:10.224Z,0.63
2022-08-31T23:34:13.121Z,1.00
2022-08-31T23:39:11.134Z,1.10
2022-08-31T23:44:10.514Z,1.20
2022-08-31T23:49:12.961Z,1.10
2022-08-31T23:54:12.560Z,1.27
2022-08-31T23:59:13.182Z,1.00
